createdAt,value
2018-05-14T00:00:26.285Z,0.00
2018-05-14T00:01:26.279Z,0.00
2018-05-14T00:02:26.251Z,0.00
2018-05-14T00:03:26.236Z,0.00
2018-05-14T00:04:26.221Z,0.00
2018-05-14T00:05:26.208Z,0.00
2018-05-14T00:06:26.190Z,0.00
2018-05-14T00:07:26.172Z,0.00
2018-05-14T00:08:26.178Z,0.00
2018-05-14T00:09:26.140Z,0.00
2018-05-14T00:10:26.124Z,0.00
2018-05-14T00:11:26.109Z,0.00
2018-05-14T00:12:26.095Z,0.00
2018-05-14T00:13:26.077Z,0.00
2018-05-14T00:14:26.059Z,0.00
2018-05-14T00:15:26.044Z,0.00
2018-05-14T00:16:26.029Z,0.00
2018-05-14T00:17:26.012Z,0.00
2018-05-14T00:18:25.996Z,0.00
2018-05-14T00:19:25.980Z,0.00
2018-05-14T00:20:25.965Z,0.00
2018-05-14T00:21:25.950Z,0.00
2018-05-14T00:22:25.934Z,0.00
2018-05-14T00:23:25.917Z,0.00
2018-05-14T00:24:25.903Z,0.00
2018-05-14T00:25:25.890Z,0.00
2018-05-14T00:26:25.869Z,0.00
2018-05-14T00:27:25.854Z,0.00
2018-05-14T00:28:25.837Z,0.00
2018-05-14T00:29:25.820Z,0.00
2018-05-14T00:30:25.806Z,0.00
2018-05-14T00:31:25.789Z,0.00
2018-05-14T00:32:25.774Z,0.00
2018-05-14T00:33:25.757Z,0.00
2018-05-14T00:34:25.741Z,0.00
2018-05-14T00:35:25.731Z,0.00
2018-05-14T00:36:25.710Z,0.00
2018-05-14T00:37:25.692Z,0.00
2018-05-14T00:38:25.676Z,0.00
2018-05-14T00:39:25.660Z,0.00
2018-05-14T00:40:25.646Z,0.00
2018-05-14T00:41:25.631Z,0.00
2018-05-14T00:42:25.612Z,0.00
2018-05-14T00:43:25.596Z,0.00
2018-05-14T00:44:25.586Z,0.00
2018-05-14T00:45:25.564Z,0.00
2018-05-14T00:46:25.552Z,0.00
2018-05-14T00:47:25.533Z,0.00
2018-05-14T00:48:25.516Z,0.00
2018-05-14T00:49:25.629Z,0.00
2018-05-14T00:50:25.483Z,0.00
2018-05-14T00:51:25.468Z,0.00
2018-05-14T00:52:25.454Z,0.00
2018-05-14T00:53:25.436Z,0.00
2018-05-14T00:54:25.419Z,0.00
2018-05-14T00:55:25.412Z,0.00
2018-05-14T00:56:25.387Z,0.00
2018-05-14T00:57:25.372Z,0.00
2018-05-14T00:58:25.355Z,0.00
2018-05-14T00:59:25.343Z,0.00
2018-05-14T01:00:25.324Z,0.00
2018-05-14T01:01:25.318Z,0.00
2018-05-14T01:02:25.289Z,0.00
2018-05-14T01:03:25.281Z,0.00
2018-05-14T01:04:25.294Z,0.00
2018-05-14T01:05:25.242Z,0.00
2018-05-14T01:06:25.228Z,0.00
2018-05-14T01:07:25.212Z,0.00
2018-05-14T01:08:25.194Z,0.00
2018-05-14T01:09:25.201Z,0.00
2018-05-14T01:10:25.172Z,0.00
2018-05-14T01:11:25.153Z,0.00
2018-05-14T01:12:25.131Z,0.00
2018-05-14T01:13:25.113Z,0.00
2018-05-14T01:14:25.098Z,0.00
2018-05-14T01:15:25.115Z,0.00
2018-05-14T01:16:25.067Z,0.00
2018-05-14T01:17:25.052Z,0.00
2018-05-14T01:18:25.034Z,0.00
2018-05-14T01:19:25.020Z,0.00
2018-05-14T01:20:25.007Z,0.00
2018-05-14T01:21:24.984Z,0.00
2018-05-14T01:22:24.970Z,0.00
2018-05-14T01:23:24.954Z,0.00
2018-05-14T01:24:24.938Z,0.00
2018-05-14T01:25:24.921Z,0.00
2018-05-14T01:26:24.906Z,0.00
2018-05-14T01:27:24.890Z,0.00
2018-05-14T01:28:24.874Z,0.00
2018-05-14T01:29:24.857Z,0.00
2018-05-14T01:30:24.841Z,0.00
2018-05-14T01:31:24.826Z,0.00
2018-05-14T01:32:24.811Z,0.00
2018-05-14T01:33:24.793Z,0.00
2018-05-14T01:34:24.777Z,0.00
2018-05-14T01:35:24.761Z,0.00
2018-05-14T01:36:24.745Z,0.00
2018-05-14T01:37:24.729Z,0.00
2018-05-14T01:38:24.712Z,0.00
2018-05-14T01:39:24.696Z,0.00
2018-05-14T01:40:24.682Z,0.00
2018-05-14T01:41:24.664Z,0.00
2018-05-14T01:42:24.651Z,0.00
2018-05-14T01:43:24.633Z,0.00
2018-05-14T01:44:24.620Z,0.00
2018-05-14T01:45:24.602Z,0.00
2018-05-14T01:46:24.585Z,0.00
2018-05-14T01:47:24.571Z,0.00
2018-05-14T01:48:24.551Z,0.00
2018-05-14T01:49:24.537Z,0.00
2018-05-14T01:50:24.521Z,0.00
2018-05-14T01:51:24.506Z,0.00
2018-05-14T01:52:24.489Z,0.00
2018-05-14T01:53:24.474Z,0.00
2018-05-14T01:54:24.459Z,0.00
2018-05-14T01:55:24.440Z,0.00
2018-05-14T01:56:24.426Z,0.00
2018-05-14T01:57:24.408Z,0.00
2018-05-14T01:58:24.391Z,0.00
2018-05-14T01:59:24.375Z,0.00
2018-05-14T02:00:24.358Z,0.00
2018-05-14T02:01:24.344Z,0.00
2018-05-14T02:02:24.328Z,0.00
2018-05-14T02:03:24.311Z,0.00
2018-05-14T02:04:24.296Z,0.00
2018-05-14T02:05:24.284Z,0.00
2018-05-14T02:06:24.265Z,0.00
2018-05-14T02:07:24.247Z,0.00
2018-05-14T02:08:24.233Z,0.00
2018-05-14T02:09:24.215Z,0.00
2018-05-14T02:10:24.220Z,0.00
2018-05-14T02:11:24.207Z,0.00
2018-05-14T02:12:24.167Z,0.00
2018-05-14T02:13:24.149Z,0.00
2018-05-14T02:14:24.137Z,0.00
2018-05-14T02:15:24.120Z,0.00
2018-05-14T02:16:24.105Z,0.00
2018-05-14T02:17:24.086Z,0.00
2018-05-14T02:18:24.071Z,0.00
2018-05-14T02:19:24.054Z,0.00
2018-05-14T02:20:24.038Z,0.00
2018-05-14T02:21:24.025Z,0.00
2018-05-14T02:22:24.014Z,0.00
2018-05-14T02:23:24.088Z,0.00
2018-05-14T02:24:23.975Z,0.00
2018-05-14T02:25:23.958Z,0.00
2018-05-14T02:26:23.942Z,0.00
2018-05-14T02:27:23.926Z,0.00
2018-05-14T02:28:23.911Z,0.00
2018-05-14T02:29:23.907Z,0.00
2018-05-14T02:30:23.880Z,0.00
2018-05-14T02:31:23.861Z,0.00
2018-05-14T02:32:23.847Z,0.00
2018-05-14T02:33:23.829Z,0.00
2018-05-14T02:34:23.816Z,0.00
2018-05-14T02:35:23.799Z,0.00
2018-05-14T02:36:23.785Z,0.00
2018-05-14T02:37:23.765Z,0.00
2018-05-14T02:38:23.781Z,0.00
2018-05-14T02:39:23.737Z,0.00
2018-05-14T02:40:23.717Z,0.00
2018-05-14T02:41:23.703Z,0.00
2018-05-14T02:42:23.691Z,0.00
2018-05-14T02:43:23.681Z,0.00
2018-05-14T02:44:23.653Z,0.00
2018-05-14T02:45:23.639Z,0.00
2018-05-14T02:46:23.621Z,0.00
2018-05-14T02:47:23.605Z,0.00
2018-05-14T02:48:23.669Z,0.00
2018-05-14T02:49:23.579Z,0.00
2018-05-14T02:50:23.558Z,0.00
2018-05-14T02:51:23.543Z,0.00
2018-05-14T02:52:23.525Z,0.00
2018-05-14T02:53:23.510Z,0.00
2018-05-14T02:54:23.495Z,0.00
2018-05-14T02:55:23.478Z,0.00
2018-05-14T02:56:23.461Z,0.00
2018-05-14T02:57:23.445Z,0.00
2018-05-14T02:58:23.429Z,0.00
2018-05-14T02:59:23.416Z,0.00
2018-05-14T03:00:23.398Z,0.00
2018-05-14T03:01:23.382Z,0.00
2018-05-14T03:02:23.365Z,0.00
2018-05-14T03:03:23.348Z,0.00
2018-05-14T03:04:23.334Z,0.00
2018-05-14T03:05:23.316Z,0.00
2018-05-14T03:06:23.302Z,0.00
2018-05-14T03:07:23.285Z,0.00
2018-05-14T03:08:23.270Z,0.00
2018-05-14T03:09:23.337Z,0.00
2018-05-14T03:10:23.368Z,0.00
2018-05-14T03:11:23.276Z,0.00
2018-05-14T03:12:23.205Z,4.00
2018-05-14T03:13:23.216Z,4.00
2018-05-14T03:14:23.171Z,0.00
2018-05-14T03:15:23.179Z,0.00
2018-05-14T03:16:23.160Z,4.00
2018-05-14T03:17:23.124Z,4.00
2018-05-14T03:18:23.108Z,0.00
2018-05-14T03:19:23.142Z,4.00
2018-05-14T03:20:23.075Z,4.00
2018-05-14T03:21:23.058Z,0.00
2018-05-14T03:22:23.046Z,4.00
2018-05-14T03:23:23.069Z,4.00
2018-05-14T03:24:23.011Z,4.00
2018-05-14T03:25:23.005Z,4.00
2018-05-14T03:26:23.033Z,8.00
2018-05-14T03:27:22.988Z,4.00
2018-05-14T03:28:22.950Z,8.00
2018-05-14T03:29:22.982Z,8.00
2018-05-14T03:30:22.919Z,8.00
2018-05-14T03:31:22.899Z,8.00
2018-05-14T03:32:22.895Z,12.00
2018-05-14T03:33:22.866Z,12.00
2018-05-14T03:34:22.855Z,12.00
2018-05-14T03:35:22.839Z,16.00
2018-05-14T03:36:22.817Z,16.00
2018-05-14T03:37:22.799Z,16.00
2018-05-14T03:38:22.785Z,20.00
2018-05-14T03:39:22.768Z,20.00
2018-05-14T03:40:22.758Z,20.00
2018-05-14T03:41:22.734Z,28.00
2018-05-14T03:42:22.753Z,28.00
2018-05-14T03:43:22.706Z,28.00
2018-05-14T03:44:22.695Z,32.00
2018-05-14T03:45:22.669Z,32.00
2018-05-14T03:46:22.679Z,40.00
2018-05-14T03:47:22.640Z,40.00
2018-05-14T03:48:22.622Z,36.00
2018-05-14T03:49:22.608Z,48.00
2018-05-14T03:50:22.593Z,48.00
2018-05-14T03:51:22.574Z,48.00
2018-05-14T03:52:22.602Z,52.00
2018-05-14T03:53:22.567Z,52.00
2018-05-14T03:54:22.582Z,52.00
2018-05-14T03:55:22.511Z,60.00
2018-05-14T03:56:22.493Z,60.00
2018-05-14T03:57:22.479Z,56.00
2018-05-14T03:58:22.461Z,56.00
2018-05-14T03:59:22.445Z,56.00
2018-05-14T04:00:22.476Z,56.00
2018-05-14T04:01:22.456Z,64.00
2018-05-14T04:02:22.472Z,56.00
2018-05-14T04:03:22.384Z,60.00
2018-05-14T04:04:22.550Z,72.00
2018-05-14T04:05:22.355Z,76.00
2018-05-14T04:06:22.334Z,76.00
2018-05-14T04:07:22.315Z,68.00
2018-05-14T04:08:22.370Z,80.00
2018-05-14T04:09:22.307Z,80.00
2018-05-14T04:10:22.267Z,84.00
2018-05-14T04:11:22.254Z,100.00
2018-05-14T04:12:22.280Z,108.00
2018-05-14T04:13:22.221Z,112.00
2018-05-14T04:14:22.201Z,124.00
2018-05-14T04:15:22.206Z,116.00
2018-05-14T04:16:22.222Z,120.00
2018-05-14T04:17:22.181Z,120.00
2018-05-14T04:18:22.137Z,132.00
2018-05-14T04:19:22.121Z,124.00
2018-05-14T04:20:22.106Z,140.00
2018-05-14T04:21:22.107Z,140.00
2018-05-14T04:22:23.219Z,140.00
2018-05-14T04:23:24.041Z,136.00
2018-05-14T04:24:22.047Z,132.00
2018-05-14T04:25:22.036Z,152.00
2018-05-14T04:26:22.007Z,156.00
2018-05-14T04:27:21.991Z,172.00
2018-05-14T04:28:21.979Z,176.00
2018-05-14T04:29:21.961Z,188.00
2018-05-14T04:30:22.092Z,196.00
2018-05-14T04:31:21.926Z,196.00
2018-05-14T04:32:21.910Z,216.00
2018-05-14T04:33:21.892Z,208.00
2018-05-14T04:34:21.877Z,208.00
2018-05-14T04:35:21.862Z,196.00
2018-05-14T04:36:21.851Z,212.00
2018-05-14T04:37:21.868Z,196.00
2018-05-14T04:38:21.816Z,164.00
2018-05-14T04:39:21.880Z,172.00
2018-05-14T04:40:21.779Z,216.00
2018-05-14T04:41:21.785Z,248.00
2018-05-14T04:42:21.766Z,284.00
2018-05-14T04:43:21.756Z,264.00
2018-05-14T04:44:21.720Z,200.00
2018-05-14T04:45:21.703Z,212.00
2018-05-14T04:46:21.681Z,252.00
2018-05-14T04:47:21.666Z,244.00
2018-05-14T04:48:21.650Z,256.00
2018-05-14T04:49:21.631Z,288.00
2018-05-14T04:50:21.617Z,304.00
2018-05-14T04:51:21.601Z,280.00
2018-05-14T04:52:21.586Z,296.00
2018-05-14T04:53:21.570Z,296.00
2018-05-14T04:54:21.559Z,292.00
2018-05-14T04:55:21.535Z,296.00
2018-05-14T04:56:21.525Z,268.00
2018-05-14T04:57:21.511Z,252.00
2018-05-14T04:58:21.508Z,252.00
2018-05-14T04:59:21.568Z,256.00
2018-05-14T05:00:21.458Z,272.00
2018-05-14T05:01:21.438Z,260.00
2018-05-14T05:02:21.423Z,260.00
2018-05-14T05:03:21.405Z,256.00
2018-05-14T05:04:21.403Z,280.00
2018-05-14T05:05:21.373Z,264.00
2018-05-14T05:06:21.357Z,264.00
2018-05-14T05:07:21.345Z,276.00
2018-05-14T05:08:21.377Z,336.00
2018-05-14T05:09:22.046Z,344.00
2018-05-14T05:10:21.310Z,344.00
2018-05-14T05:11:21.283Z,368.00
2018-05-14T05:12:21.260Z,380.00
2018-05-14T05:13:21.250Z,436.00
2018-05-14T05:14:21.245Z,500.00
2018-05-14T05:15:21.218Z,488.00
2018-05-14T05:16:21.195Z,460.00
2018-05-14T05:17:21.179Z,512.00
2018-05-14T05:18:21.162Z,476.00
2018-05-14T05:19:21.147Z,428.00
2018-05-14T05:20:21.130Z,480.00
2018-05-14T05:21:21.114Z,452.00
2018-05-14T05:22:21.103Z,448.00
2018-05-14T05:23:21.083Z,524.00
2018-05-14T05:24:21.067Z,488.00
2018-05-14T05:25:21.062Z,548.00
2018-05-14T05:26:21.041Z,572.00
2018-05-14T05:27:21.062Z,532.00
2018-05-14T05:28:21.085Z,568.00
2018-05-14T05:29:21.022Z,544.00
2018-05-14T05:30:21.007Z,600.00
2018-05-14T05:31:20.954Z,608.00
2018-05-14T05:32:20.954Z,540.00
2018-05-14T05:33:20.954Z,556.00
2018-05-14T05:34:20.905Z,640.00
2018-05-14T05:35:20.889Z,684.00
2018-05-14T05:36:20.873Z,628.00
2018-05-14T05:37:20.856Z,556.00
2018-05-14T05:38:20.840Z,568.00
2018-05-14T05:39:20.823Z,532.00
2018-05-14T05:40:20.807Z,608.00
2018-05-14T05:41:20.802Z,548.00
2018-05-14T05:42:20.785Z,548.00
2018-05-14T05:43:20.759Z,500.00
2018-05-14T05:44:20.743Z,532.00
2018-05-14T05:45:20.755Z,556.00
2018-05-14T05:46:20.711Z,516.00
2018-05-14T05:47:20.696Z,532.00
2018-05-14T05:48:20.680Z,548.00
2018-05-14T05:49:20.662Z,532.00
2018-05-14T05:50:20.646Z,536.00
2018-05-14T05:51:20.630Z,564.00
2018-05-14T05:52:20.672Z,648.00
2018-05-14T05:53:20.597Z,700.00
2018-05-14T05:54:20.583Z,732.00
2018-05-14T05:55:20.566Z,684.00
2018-05-14T05:56:20.550Z,692.00
2018-05-14T05:57:20.534Z,708.00
2018-05-14T05:58:20.522Z,796.00
2018-05-14T05:59:20.504Z,912.00
2018-05-14T06:00:20.485Z,876.00
2018-05-14T06:01:20.490Z,840.00
2018-05-14T06:02:20.454Z,852.00
2018-05-14T06:03:20.438Z,852.00
2018-05-14T06:04:20.421Z,828.00
2018-05-14T06:05:20.406Z,836.00
2018-05-14T06:06:20.389Z,952.00
2018-05-14T06:07:20.374Z,1088.00
2018-05-14T06:08:20.356Z,928.00
2018-05-14T06:09:20.340Z,876.00
2018-05-14T06:10:20.325Z,920.00
2018-05-14T06:11:20.309Z,880.00
2018-05-14T06:12:20.298Z,968.00
2018-05-14T06:13:20.277Z,908.00
2018-05-14T06:14:20.261Z,876.00
2018-05-14T06:15:20.246Z,788.00
2018-05-14T06:16:20.229Z,876.00
2018-05-14T06:17:20.214Z,748.00
2018-05-14T06:18:20.197Z,944.00
2018-05-14T06:19:20.180Z,912.00
2018-05-14T06:20:20.166Z,1012.00
2018-05-14T06:21:20.149Z,932.00
2018-05-14T06:22:20.157Z,788.00
2018-05-14T06:23:20.141Z,860.00
2018-05-14T06:24:20.103Z,872.00
2018-05-14T06:25:20.123Z,852.00
2018-05-14T06:26:20.078Z,760.00
2018-05-14T06:27:20.068Z,724.00
2018-05-14T06:28:20.038Z,804.00
2018-05-14T06:29:20.026Z,856.00
2018-05-14T06:30:20.007Z,1004.00
2018-05-14T06:31:19.992Z,912.00
2018-05-14T06:32:19.976Z,1048.00
2018-05-14T06:33:19.960Z,1136.00
2018-05-14T06:34:19.945Z,1164.00
2018-05-14T06:35:19.927Z,1256.00
2018-05-14T06:36:19.913Z,1240.00
2018-05-14T06:37:19.896Z,1396.00
2018-05-14T06:38:19.881Z,1436.00
2018-05-14T06:39:19.863Z,1428.00
2018-05-14T06:40:19.850Z,1116.00
2018-05-14T06:41:19.834Z,988.00
2018-05-14T06:42:19.823Z,1004.00
2018-05-14T06:43:19.803Z,948.00
2018-05-14T06:44:19.819Z,908.00
2018-05-14T06:45:19.770Z,880.00
2018-05-14T06:46:19.752Z,832.00
2018-05-14T06:47:19.740Z,808.00
2018-05-14T06:48:19.724Z,792.00
2018-05-14T06:49:19.710Z,784.00
2018-05-14T06:50:19.691Z,780.00
2018-05-14T06:51:19.686Z,776.00
2018-05-14T06:52:19.661Z,768.00
2018-05-14T06:53:19.643Z,756.00
2018-05-14T06:54:19.630Z,748.00
2018-05-14T06:55:19.612Z,736.00
2018-05-14T06:56:19.597Z,728.00
2018-05-14T06:57:19.580Z,720.00
2018-05-14T06:58:19.570Z,724.00
2018-05-14T06:59:19.557Z,728.00
2018-05-14T07:00:19.536Z,700.00
2018-05-14T07:01:19.520Z,712.00
2018-05-14T07:02:19.503Z,708.00
2018-05-14T07:03:19.489Z,772.00
2018-05-14T07:04:19.475Z,772.00
2018-05-14T07:05:19.460Z,744.00
2018-05-14T07:06:19.442Z,784.00
2018-05-14T07:07:19.426Z,784.00
2018-05-14T07:08:19.412Z,780.00
2018-05-14T07:09:19.451Z,796.00
2018-05-14T07:10:19.418Z,808.00
2018-05-14T07:11:19.392Z,816.00
2018-05-14T07:12:19.383Z,812.00
2018-05-14T07:13:19.333Z,796.00
2018-05-14T07:14:19.318Z,804.00
2018-05-14T07:15:19.303Z,816.00
2018-05-14T07:16:19.287Z,828.00
2018-05-14T07:17:19.271Z,828.00
2018-05-14T07:18:19.256Z,836.00
2018-05-14T07:19:19.254Z,832.00
2018-05-14T07:20:19.230Z,844.00
2018-05-14T07:21:19.208Z,856.00
2018-05-14T07:22:19.198Z,848.00
2018-05-14T07:23:19.184Z,868.00
2018-05-14T07:24:19.164Z,952.00
2018-05-14T07:25:19.149Z,944.00
2018-05-14T07:26:19.135Z,896.00
2018-05-14T07:27:19.133Z,892.00
2018-05-14T07:28:19.123Z,880.00
2018-05-14T07:29:19.112Z,880.00
2018-05-14T07:30:19.070Z,888.00
2018-05-14T07:31:19.058Z,884.00
2018-05-14T07:32:19.038Z,888.00
2018-05-14T07:33:19.024Z,896.00
2018-05-14T07:34:19.016Z,892.00
2018-05-14T07:35:18.999Z,896.00
2018-05-14T07:36:19.028Z,904.00
2018-05-14T07:37:18.962Z,908.00
2018-05-14T07:38:18.946Z,904.00
2018-05-14T07:39:18.936Z,900.00
2018-05-14T07:40:18.917Z,920.00
2018-05-14T07:41:18.900Z,928.00
2018-05-14T07:42:18.896Z,928.00
2018-05-14T07:43:18.872Z,940.00
2018-05-14T07:44:18.854Z,952.00
2018-05-14T07:45:18.839Z,948.00
2018-05-14T07:46:18.826Z,944.00
2018-05-14T07:47:18.813Z,944.00
2018-05-14T07:48:18.791Z,956.00
2018-05-14T07:49:18.779Z,960.00
2018-05-14T07:50:18.766Z,960.00
2018-05-14T07:51:18.749Z,972.00
2018-05-14T07:52:18.741Z,976.00
2018-05-14T07:53:18.723Z,980.00
2018-05-14T07:54:18.747Z,980.00
2018-05-14T07:55:18.700Z,980.00
2018-05-14T07:56:18.676Z,980.00
2018-05-14T07:57:18.658Z,984.00
2018-05-14T07:58:18.640Z,984.00
2018-05-14T07:59:18.630Z,1000.00
2018-05-14T08:00:18.701Z,1004.00
2018-05-14T08:01:18.596Z,1012.00
2018-05-14T08:02:18.582Z,1024.00
2018-05-14T08:03:18.564Z,1020.00
2018-05-14T08:04:18.549Z,1020.00
2018-05-14T08:05:18.536Z,1004.00
2018-05-14T08:06:18.521Z,988.00
2018-05-14T08:07:18.504Z,964.00
2018-05-14T08:08:18.492Z,980.00
2018-05-14T08:09:18.474Z,1016.00
2018-05-14T08:10:18.460Z,1012.00
2018-05-14T08:11:18.446Z,1028.00
2018-05-14T08:12:18.436Z,1032.00
2018-05-14T08:13:18.416Z,1028.00
2018-05-14T08:14:18.399Z,1032.00
2018-05-14T08:15:18.385Z,1040.00
2018-05-14T08:16:18.372Z,1048.00
2018-05-14T08:17:18.360Z,1048.00
2018-05-14T08:18:18.342Z,1056.00
2018-05-14T08:19:18.326Z,1064.00
2018-05-14T08:20:18.316Z,1076.00
2018-05-14T08:21:18.297Z,1076.00
2018-05-14T08:22:18.283Z,1080.00
2018-05-14T08:23:18.266Z,1100.00
2018-05-14T08:24:18.252Z,1100.00
2018-05-14T08:25:18.236Z,1100.00
2018-05-14T08:26:18.221Z,1104.00
2018-05-14T08:27:18.207Z,1100.00
2018-05-14T08:28:18.193Z,1036.00
2018-05-14T08:29:18.177Z,1096.00
2018-05-14T08:30:18.162Z,1096.00
2018-05-14T08:31:18.263Z,1108.00
2018-05-14T08:32:18.136Z,1108.00
2018-05-14T08:33:18.119Z,1108.00
2018-05-14T08:34:18.105Z,1112.00
2018-05-14T08:35:18.090Z,1108.00
2018-05-14T08:36:18.122Z,1112.00
2018-05-14T08:37:18.083Z,1108.00
2018-05-14T08:38:18.049Z,1120.00
2018-05-14T08:39:18.031Z,1120.00
2018-05-14T08:40:18.018Z,1132.00
2018-05-14T08:41:18.000Z,1144.00
2018-05-14T08:42:17.995Z,1132.00
2018-05-14T08:43:17.982Z,1148.00
2018-05-14T08:44:17.956Z,1160.00
2018-05-14T08:45:17.945Z,1160.00
2018-05-14T08:46:17.928Z,1164.00
2018-05-14T08:47:17.914Z,1168.00
2018-05-14T08:48:17.897Z,1156.00
2018-05-14T08:49:17.892Z,1164.00
2018-05-14T08:50:17.874Z,1164.00
2018-05-14T08:51:17.863Z,1172.00
2018-05-14T08:52:17.840Z,1184.00
2018-05-14T08:53:17.823Z,1196.00
2018-05-14T08:54:17.903Z,1200.00
2018-05-14T08:55:17.796Z,1204.00
2018-05-14T08:56:17.785Z,1208.00
2018-05-14T08:57:17.779Z,1224.00
2018-05-14T08:58:17.754Z,1228.00
2018-05-14T08:59:17.739Z,1232.00
2018-05-14T09:00:17.724Z,1236.00
2018-05-14T09:01:17.711Z,1248.00
2018-05-14T09:02:17.695Z,1248.00
2018-05-14T09:03:17.682Z,1260.00
2018-05-14T09:04:17.673Z,1260.00
2018-05-14T09:05:17.652Z,1276.00
2018-05-14T09:06:17.638Z,1288.00
2018-05-14T09:07:17.623Z,1292.00
2018-05-14T09:08:17.611Z,1308.00
2018-05-14T09:09:17.595Z,1316.00
2018-05-14T09:10:17.581Z,1320.00
2018-05-14T09:11:17.571Z,1336.00
2018-05-14T09:12:17.556Z,1328.00
2018-05-14T09:13:17.540Z,1344.00
2018-05-14T09:14:17.526Z,1348.00
2018-05-14T09:15:17.510Z,1360.00
2018-05-14T09:16:17.498Z,1380.00
2018-05-14T09:17:17.483Z,1376.00
2018-05-14T09:18:17.471Z,1368.00
2018-05-14T09:19:17.537Z,1380.00
2018-05-14T09:20:17.441Z,1388.00
2018-05-14T09:21:17.424Z,1384.00
2018-05-14T09:22:17.414Z,1404.00
2018-05-14T09:23:17.398Z,1408.00
2018-05-14T09:24:17.387Z,1440.00
2018-05-14T09:25:17.369Z,1452.00
2018-05-14T09:26:17.356Z,1460.00
2018-05-14T09:27:17.342Z,1476.00
2018-05-14T09:28:17.330Z,1472.00
2018-05-14T09:29:17.315Z,1472.00
2018-05-14T09:30:17.300Z,1476.00
2018-05-14T09:31:17.306Z,1484.00
2018-05-14T09:32:17.272Z,1496.00
2018-05-14T09:33:17.259Z,1508.00
2018-05-14T09:34:17.246Z,1528.00
2018-05-14T09:35:17.235Z,1544.00
2018-05-14T09:36:17.218Z,1564.00
2018-05-14T09:37:17.290Z,1580.00
2018-05-14T09:38:17.196Z,1584.00
2018-05-14T09:39:17.177Z,1588.00
2018-05-14T09:40:17.162Z,1592.00
2018-05-14T09:41:17.149Z,1588.00
2018-05-14T09:42:17.134Z,1612.00
2018-05-14T09:43:17.121Z,1620.00
2018-05-14T09:44:17.107Z,1636.00
2018-05-14T09:45:17.094Z,1652.00
2018-05-14T09:46:17.084Z,1672.00
2018-05-14T09:47:17.068Z,1680.00
2018-05-14T09:48:17.055Z,1660.00
2018-05-14T09:49:17.061Z,1708.00
2018-05-14T09:50:17.025Z,1744.00
2018-05-14T09:51:17.013Z,1768.00
2018-05-14T09:52:17.001Z,1764.00
2018-05-14T09:53:16.985Z,1768.00
2018-05-14T09:54:16.973Z,1776.00
2018-05-14T09:55:16.959Z,1780.00
2018-05-14T09:56:16.945Z,1884.00
2018-05-14T09:57:16.985Z,1804.00
2018-05-14T09:58:16.921Z,1804.00
2018-05-14T09:59:16.905Z,1808.00
2018-05-14T10:00:16.893Z,1824.00
2018-05-14T10:01:16.877Z,1840.00
2018-05-14T10:02:16.867Z,1844.00
2018-05-14T10:03:16.853Z,1872.00
2018-05-14T10:04:16.841Z,1900.00
2018-05-14T10:05:16.826Z,1944.00
2018-05-14T10:06:16.814Z,2040.00
2018-05-14T10:07:16.803Z,2228.00
2018-05-14T10:08:16.786Z,2536.00
2018-05-14T10:09:16.775Z,2904.00
2018-05-14T10:10:16.761Z,3476.00
2018-05-14T10:11:16.747Z,4728.00
2018-05-14T10:12:16.735Z,7832.00
2018-05-14T10:13:16.733Z,11132.00
2018-05-14T10:14:16.711Z,13312.00
2018-05-14T10:15:16.696Z,15232.00
2018-05-14T10:16:16.686Z,15616.00
2018-05-14T10:17:16.677Z,15360.00
2018-05-14T10:18:16.752Z,15712.00
2018-05-14T10:19:16.651Z,16320.00
2018-05-14T10:20:16.642Z,16480.00
2018-05-14T10:21:16.629Z,16672.00
2018-05-14T10:22:16.621Z,16736.00
2018-05-14T10:23:16.611Z,16832.00
2018-05-14T10:24:16.606Z,17408.00
2018-05-14T10:25:16.595Z,17920.00
2018-05-14T10:26:16.586Z,18304.00
2018-05-14T10:27:16.579Z,18432.00
2018-05-14T10:28:16.570Z,18880.00
2018-05-14T10:29:16.565Z,18592.00
2018-05-14T10:30:16.557Z,18304.00
2018-05-14T10:31:16.552Z,17856.00
2018-05-14T10:32:16.547Z,17600.00
2018-05-14T10:33:16.541Z,17216.00
2018-05-14T10:34:16.536Z,17120.00
2018-05-14T10:35:16.533Z,16992.00
2018-05-14T10:36:16.531Z,16928.00
2018-05-14T10:37:16.534Z,16864.00
2018-05-14T10:38:16.521Z,16832.00
2018-05-14T10:39:16.517Z,16608.00
2018-05-14T10:40:16.517Z,16800.00
2018-05-14T10:41:16.514Z,17056.00
2018-05-14T10:42:16.510Z,17248.00
2018-05-14T10:43:16.509Z,17312.00
2018-05-14T10:44:16.507Z,17152.00
2018-05-14T10:45:16.504Z,17184.00
2018-05-14T10:46:16.503Z,17184.00
2018-05-14T10:47:16.505Z,17472.00
2018-05-14T10:48:16.504Z,17696.00
2018-05-14T10:49:16.501Z,17792.00
2018-05-14T10:50:16.509Z,17856.00
2018-05-14T10:51:16.506Z,17952.00
2018-05-14T10:52:16.552Z,18112.00
2018-05-14T10:53:16.503Z,18240.00
2018-05-14T10:54:16.503Z,18240.00
2018-05-14T10:55:16.505Z,18144.00
2018-05-14T10:56:16.569Z,18304.00
2018-05-14T10:57:16.567Z,18528.00
2018-05-14T10:58:16.520Z,18304.00
2018-05-14T10:59:16.510Z,18688.00
2018-05-14T11:00:16.552Z,18848.00
2018-05-14T11:01:16.532Z,18816.00
2018-05-14T11:02:16.513Z,18912.00
2018-05-14T11:03:16.515Z,18752.00
2018-05-14T11:04:16.519Z,19072.00
2018-05-14T11:05:16.532Z,19392.00
2018-05-14T11:06:16.530Z,19616.00
2018-05-14T11:07:16.523Z,19328.00
2018-05-14T11:08:16.546Z,19872.00
2018-05-14T11:09:16.555Z,20032.00
2018-05-14T11:10:16.576Z,20288.00
2018-05-14T11:11:16.547Z,20192.00
2018-05-14T11:12:16.536Z,19808.00
2018-05-14T11:13:16.538Z,19776.00
2018-05-14T11:14:16.542Z,19456.00
2018-05-14T11:15:16.573Z,20064.00
2018-05-14T11:16:16.575Z,20032.00
2018-05-14T11:17:16.568Z,19840.00
2018-05-14T11:18:17.192Z,19776.00
2018-05-14T11:19:17.203Z,20000.00
2018-05-14T11:20:16.618Z,20064.00
2018-05-14T11:21:16.623Z,20000.00
2018-05-14T11:22:16.625Z,19712.00
2018-05-14T11:23:16.632Z,20064.00
2018-05-14T11:24:16.636Z,20000.00
2018-05-14T11:25:16.784Z,20096.00
2018-05-14T11:26:16.643Z,19232.00
2018-05-14T11:27:16.654Z,19424.00
2018-05-14T11:28:16.656Z,19360.00
2018-05-14T11:29:16.669Z,19552.00
2018-05-14T11:30:16.658Z,19680.00
2018-05-14T11:31:17.188Z,19712.00
2018-05-14T11:32:16.673Z,20032.00
2018-05-14T11:33:16.673Z,19776.00
2018-05-14T11:34:16.664Z,19360.00
2018-05-14T11:35:16.705Z,19136.00
2018-05-14T11:36:16.697Z,19392.00
2018-05-14T11:37:16.693Z,19328.00
2018-05-14T11:38:16.696Z,19616.00
2018-05-14T11:39:18.492Z,19616.00
2018-05-14T11:40:16.708Z,19872.00
2018-05-14T11:41:16.721Z,19872.00
2018-05-14T11:42:16.729Z,19936.00
2018-05-14T11:43:16.904Z,19488.00
2018-05-14T11:44:16.726Z,19328.00
2018-05-14T11:45:16.719Z,19392.00
2018-05-14T11:46:16.742Z,19200.00
2018-05-14T11:47:16.730Z,19136.00
2018-05-14T11:48:16.750Z,19104.00
2018-05-14T11:49:16.766Z,19200.00
2018-05-14T11:50:16.783Z,19296.00
2018-05-14T11:51:18.706Z,19328.00
2018-05-14T11:52:17.410Z,19264.00
2018-05-14T11:53:17.706Z,19552.00
2018-05-14T11:54:16.814Z,19744.00
2018-05-14T11:55:16.776Z,19712.00
2018-05-14T11:56:16.788Z,19936.00
2018-05-14T11:57:16.786Z,20160.00
2018-05-14T11:58:16.791Z,20736.00
2018-05-14T11:59:17.705Z,21248.00
2018-05-14T12:00:16.805Z,21600.00
2018-05-14T12:01:17.707Z,21920.00
2018-05-14T12:02:16.816Z,22208.00
2018-05-14T12:03:16.831Z,22368.00
2018-05-14T12:04:16.824Z,22720.00
2018-05-14T12:05:16.831Z,23008.00
2018-05-14T12:06:16.832Z,23360.00
2018-05-14T12:07:16.833Z,23424.00
2018-05-14T12:08:16.850Z,23904.00
2018-05-14T12:09:16.859Z,24256.00
2018-05-14T12:10:16.861Z,24384.00
2018-05-14T12:11:16.883Z,25120.00
2018-05-14T12:12:16.930Z,26976.00
2018-05-14T12:13:17.708Z,30688.00
2018-05-14T12:14:17.710Z,31520.00
2018-05-14T12:15:16.898Z,31968.00
2018-05-14T12:16:16.910Z,32672.00
2018-05-14T12:17:16.908Z,36288.00
2018-05-14T12:18:16.928Z,40672.00
2018-05-14T12:19:16.913Z,41152.00
2018-05-14T12:20:16.915Z,39808.00
2018-05-14T12:21:16.926Z,37504.00
2018-05-14T12:22:16.880Z,34816.00
2018-05-14T12:23:16.882Z,33856.00
2018-05-14T12:24:16.888Z,33312.00
2018-05-14T12:25:16.891Z,32800.00
2018-05-14T12:26:16.933Z,31136.00
2018-05-14T12:27:17.258Z,29344.00
2018-05-14T12:28:16.939Z,29184.00
2018-05-14T12:30:16.923Z,27872.00